createdAt,value
2022-08-17T00:01:10.916Z,56.70
2022-08-17T00:03:39.630Z,57.00
2022-08-17T00:06:08.549Z,56.90
2022-08-17T00:08:36.355Z,56.80
2022-08-17T00:11:01.315Z,57.70
2022-08-17T00:13:28.279Z,57.40
2022-08-17T04:08:20.854Z,81.30
2022-08-17T04:10:44.933Z,77.70
2022-08-17T04:13:09.574Z,77.60
2022-08-17T04:15:33.997Z,77.60
2022-08-17T04:17:58.250Z,77.90
2022-08-17T04:20:25.170Z,77.20
2022-08-17T04:23:02.132Z,76.50
2022-08-17T04:25:28.323Z,76.10
2022-08-17T04:27:52.319Z,76.00
2022-08-17T04:30:16.560Z,76.30
2022-08-17T04:33:03.640Z,77.00
2022-08-17T04:35:35.690Z,77.10
2022-08-17T04:38:00.129Z,76.30
2022-08-17T04:40:45.077Z,75.70
2022-08-17T04:43:14.110Z,75.30
2022-08-17T04:45:55.507Z,74.60
2022-08-17T04:48:20.842Z,76.40
2022-08-17T04:50:49.005Z,76.00
2022-08-17T04:53:13.175Z,75.50
2022-08-17T04:55:41.441Z,74.90
2022-08-17T04:58:06.741Z,75.10
2022-08-17T05:00:30.615Z,72.90
2022-08-17T05:02:57.059Z,72.50
2022-08-17T05:05:23.261Z,72.60
2022-08-17T05:07:47.413Z,72.70
2022-08-17T05:10:11.945Z,72.30
2022-08-17T05:12:37.199Z,72.20
2022-08-17T05:15:01.304Z,71.90
2022-08-17T05:17:25.600Z,71.40
2022-08-17T05:19:51.997Z,72.20
2022-08-17T05:22:16.566Z,71.50
2022-08-17T05:24:43.619Z,71.70
2022-08-17T05:27:19.074Z,70.70
2022-08-17T05:29:44.274Z,70.10
2022-08-17T05:32:38.224Z,68.40
2022-08-17T05:35:01.064Z,68.80
2022-08-17T05:37:26.109Z,69.20
2022-08-17T05:39:50.036Z,69.00
2022-08-17T05:42:13.718Z,69.30
2022-08-17T05:44:37.354Z,70.30
2022-08-17T05:47:03.522Z,71.20
2022-08-17T05:49:29.737Z,70.70
2022-08-17T05:52:20.350Z,70.60
2022-08-17T05:55:00.095Z,70.60
2022-08-17T05:57:53.608Z,69.90
2022-08-17T06:00:30.112Z,69.70
2022-08-17T06:03:13.812Z,69.70
2022-08-17T06:05:56.022Z,69.90
2022-08-17T06:08:28.352Z,69.70
2022-08-17T06:10:59.451Z,69.60
2022-08-17T06:13:37.613Z,68.80
2022-08-17T06:16:33.050Z,69.50
2022-08-17T06:19:02.614Z,69.20
2022-08-17T06:21:32.141Z,69.80
2022-08-17T06:24:04.061Z,69.00
2022-08-17T06:26:42.751Z,69.40
2022-08-17T06:29:20.515Z,69.60
2022-08-17T06:31:44.319Z,69.90
2022-08-17T06:34:13.302Z,69.00
2022-08-17T06:36:50.715Z,68.70
2022-08-17T06:39:31.478Z,68.90
2022-08-17T06:42:06.672Z,69.50
2022-08-17T06:44:43.550Z,71.10
2022-08-17T06:47:28.552Z,69.70
2022-08-17T06:50:08.029Z,70.40
2022-08-17T06:52:55.544Z,70.30
2022-08-17T06:55:27.493Z,69.00
2022-08-17T06:57:57.881Z,70.30
2022-08-17T07:00:26.376Z,72.00
2022-08-17T07:02:56.880Z,72.10
2022-08-17T07:23:19.074Z,74.20
2022-08-17T07:25:42.761Z,74.20
2022-08-17T07:28:08.189Z,74.00
2022-08-17T07:30:44.666Z,73.70
2022-08-17T07:33:19.933Z,74.10
2022-08-17T07:35:48.261Z,73.40
2022-08-17T07:38:25.416Z,73.30
2022-08-17T07:41:03.933Z,73.80
2022-08-17T07:43:31.226Z,74.40
2022-08-17T07:46:44.864Z,73.50
2022-08-17T07:49:37.850Z,74.20
2022-08-17T07:52:48.045Z,75.00
2022-08-17T07:54:52.175Z,73.60
2022-08-17T07:57:35.827Z,74.30
2022-08-17T08:00:23.784Z,73.50
2022-08-17T08:03:27.308Z,73.50
2022-08-17T08:05:56.531Z,73.60
2022-08-17T08:08:29.148Z,74.30
2022-08-17T08:11:05.415Z,72.20
2022-08-17T08:13:32.347Z,72.30
2022-08-17T08:15:58.624Z,73.80
2022-08-17T08:18:53.803Z,73.00
2022-08-17T08:21:14.531Z,74.70
2022-08-17T08:23:46.388Z,73.60
2022-08-17T08:26:27.576Z,73.70
2022-08-17T08:29:04.550Z,75.30
2022-08-17T08:31:42.571Z,74.30
2022-08-17T08:34:53.207Z,72.10
2022-08-17T08:37:17.694Z,73.00
2022-08-17T08:39:57.118Z,72.80
2022-08-17T08:42:32.942Z,73.30
2022-08-17T08:45:06.787Z,74.10
2022-08-17T08:47:51.373Z,74.80
2022-08-17T08:50:36.989Z,74.10
2022-08-17T08:53:28.967Z,72.40
2022-08-17T08:55:59.643Z,73.90
2022-08-17T08:58:41.312Z,73.10
2022-08-17T09:01:18.086Z,73.60
2022-08-17T09:04:24.680Z,73.40
2022-08-17T09:07:03.623Z,72.90
2022-08-17T09:09:39.360Z,73.00
2022-08-17T09:12:13.817Z,73.30
2022-08-17T09:14:46.928Z,73.10
2022-08-17T09:17:16.415Z,74.10
2022-08-17T09:19:49.050Z,74.20
2022-08-17T09:22:31.731Z,74.60
2022-08-17T09:25:06.854Z,74.70
2022-08-17T09:27:38.010Z,74.40
2022-08-17T09:30:09.000Z,74.40
2022-08-17T09:32:39.540Z,74.40
2022-08-17T09:35:10.695Z,73.80
2022-08-17T09:37:48.171Z,74.30
2022-08-17T09:40:22.672Z,74.10
2022-08-17T09:42:51.230Z,74.50
2022-08-17T09:45:33.374Z,74.00
2022-08-17T09:48:04.844Z,74.60
2022-08-17T09:51:03.440Z,74.30
2022-08-17T09:53:20.661Z,74.50
2022-08-17T09:56:10.564Z,74.80
2022-08-17T09:59:00.539Z,75.40
2022-08-17T10:01:36.690Z,75.80
2022-08-17T10:04:23.822Z,75.90
2022-08-17T10:06:58.719Z,76.80
2022-08-17T10:09:40.681Z,76.60
2022-08-17T10:12:21.485Z,76.70
2022-08-17T10:15:07.970Z,76.70
2022-08-17T10:17:44.972Z,77.10
2022-08-17T10:20:15.921Z,77.00
2022-08-17T10:23:04.448Z,77.00
2022-08-17T10:25:55.678Z,78.00
2022-08-17T10:28:28.735Z,78.80
2022-08-17T10:31:16.599Z,79.10
2022-08-17T10:33:58.171Z,79.20
2022-08-17T10:36:30.270Z,79.70
2022-08-17T10:39:05.437Z,79.00
2022-08-17T10:41:40.313Z,79.00
2022-08-17T10:44:37.210Z,79.70
2022-08-17T10:47:10.514Z,79.60
2022-08-17T10:49:36.804Z,79.40
2022-08-17T10:52:03.583Z,79.60
2022-08-17T10:54:47.394Z,79.30
2022-08-17T10:57:42.252Z,78.80
2022-08-17T11:00:14.850Z,78.80
2022-08-17T11:02:49.878Z,79.20
2022-08-17T11:05:31.603Z,79.60
2022-08-17T11:08:36.286Z,79.10
2022-08-17T11:11:19.890Z,79.50
2022-08-17T11:14:07.582Z,80.00
2022-08-17T11:16:45.672Z,79.10
2022-08-17T11:19:47.669Z,79.90
2022-08-17T11:22:43.822Z,79.00
2022-08-17T11:25:18.307Z,80.70
2022-08-17T11:27:42.447Z,80.30
2022-08-17T11:30:10.546Z,80.40
2022-08-17T11:32:42.946Z,80.70
2022-08-17T11:35:30.311Z,80.30
2022-08-17T11:38:14.036Z,81.30
2022-08-17T11:41:12.962Z,81.90
2022-08-17T11:44:17.349Z,81.60
2022-08-17T11:47:16.282Z,83.00
2022-08-17T11:50:33.689Z,84.00
2022-08-17T11:52:58.697Z,83.60
2022-08-17T11:56:03.650Z,83.30
2022-08-17T11:58:43.271Z,83.00
2022-08-17T12:01:13.501Z,83.40
2022-08-17T12:03:57.048Z,83.40
2022-08-17T12:06:43.596Z,82.90
2022-08-17T12:09:15.826Z,82.80
2022-08-17T12:12:01.706Z,81.30
2022-08-17T12:14:51.696Z,81.80
2022-08-17T12:17:41.328Z,81.90
2022-08-17T12:20:23.278Z,81.80
2022-08-17T12:23:01.376Z,81.40
2022-08-17T12:25:35.258Z,82.10
2022-08-17T12:28:06.558Z,82.40
2022-08-17T12:30:31.170Z,81.70
2022-08-17T12:32:55.588Z,82.10
2022-08-17T12:35:35.378Z,82.40
2022-08-17T12:37:59.746Z,82.30
2022-08-17T12:40:28.172Z,81.80
2022-08-17T12:43:00.787Z,82.50
2022-08-17T12:45:29.393Z,82.40
2022-08-17T12:48:06.545Z,82.30
2022-08-17T12:50:30.416Z,83.00
2022-08-17T12:52:59.724Z,81.50
2022-08-17T12:55:27.089Z,81.70
2022-08-17T12:57:59.747Z,81.90
2022-08-17T13:00:31.248Z,82.30
2022-08-17T13:03:00.276Z,81.60
2022-08-17T13:05:29.525Z,81.30
2022-08-17T13:07:54.884Z,81.80
2022-08-17T13:10:28.613Z,81.60
2022-08-17T13:12:58.054Z,83.00
2022-08-17T13:15:27.588Z,83.90
2022-08-17T13:18:01.651Z,84.00
2022-08-17T13:20:25.477Z,84.30
2022-08-17T13:22:57.048Z,84.20
2022-08-17T13:25:20.711Z,83.10
2022-08-17T13:27:53.716Z,83.20
2022-08-17T13:30:28.024Z,82.90
2022-08-17T13:32:53.957Z,81.50
2022-08-17T13:35:50.177Z,82.00
2022-08-17T13:38:18.375Z,82.70
2022-08-17T13:40:53.286Z,83.60
2022-08-17T13:43:45.663Z,83.10
2022-08-17T13:46:13.742Z,82.80
2022-08-17T13:48:37.367Z,83.30
2022-08-17T13:51:31.068Z,83.10
2022-08-17T13:54:00.628Z,82.90
2022-08-17T13:56:39.331Z,82.70
2022-08-17T13:59:06.728Z,82.30
2022-08-17T14:01:35.900Z,81.30
2022-08-17T14:04:01.674Z,81.20
2022-08-17T14:06:52.582Z,81.90
2022-08-17T14:09:10.600Z,81.90
2022-08-17T14:11:34.168Z,82.20
2022-08-17T14:13:58.747Z,82.10
2022-08-17T14:16:22.488Z,82.00
2022-08-17T14:18:56.701Z,81.50
2022-08-17T14:21:20.870Z,81.00
2022-08-17T14:23:49.088Z,82.20
2022-08-17T14:26:18.835Z,81.30
2022-08-17T14:28:54.635Z,82.00
2022-08-17T14:31:20.663Z,80.10
2022-08-17T14:33:44.240Z,81.00
2022-08-17T14:36:09.606Z,81.50
2022-08-17T14:38:33.528Z,81.40
2022-08-17T14:40:57.271Z,81.00
2022-08-17T14:43:21.114Z,81.90
2022-08-17T14:45:45.162Z,80.60
2022-08-17T14:48:12.014Z,81.20
2022-08-17T14:50:36.535Z,81.20
2022-08-17T14:53:04.464Z,80.50
2022-08-17T14:55:28.390Z,79.20
2022-08-17T14:57:52.109Z,81.30
2022-08-17T15:00:17.474Z,79.60
2022-08-17T15:02:48.358Z,79.90
2022-08-17T15:05:12.143Z,80.00
2022-08-17T15:07:35.703Z,80.20
2022-08-17T15:10:01.481Z,79.80
2022-08-17T15:12:31.842Z,80.00
2022-08-17T15:14:57.084Z,80.20
2022-08-17T15:17:20.680Z,78.90
2022-08-17T15:19:44.369Z,78.60
2022-08-17T15:22:08.070Z,78.50
2022-08-17T15:24:31.687Z,80.00
2022-08-17T15:26:56.703Z,80.40
2022-08-17T15:29:20.287Z,80.10
2022-08-17T15:31:43.929Z,77.90
2022-08-17T15:34:07.993Z,79.40
2022-08-17T15:36:32.636Z,77.60
2022-08-17T15:38:56.185Z,79.50
2022-08-17T15:41:20.842Z,79.20
2022-08-17T15:43:47.133Z,79.30
2022-08-17T15:46:15.082Z,78.60
2022-08-17T15:48:42.754Z,77.80
2022-08-17T15:51:06.418Z,79.50
2022-08-17T15:53:30.017Z,79.60
2022-08-17T15:55:53.673Z,78.30
2022-08-17T15:58:17.232Z,77.70
2022-08-17T16:01:14.030Z,76.60
2022-08-17T16:03:58.353Z,75.70
2022-08-17T16:06:13.523Z,77.30
2022-08-17T16:08:37.677Z,77.90
2022-08-17T16:11:03.525Z,78.50
2022-08-17T16:13:28.872Z,77.50
2022-08-17T16:15:56.945Z,78.50
2022-08-17T16:18:21.209Z,78.40
2022-08-17T16:20:44.858Z,78.90
2022-08-17T16:23:09.121Z,79.00
2022-08-17T16:25:52.461Z,78.70
2022-08-17T16:28:18.273Z,79.80
2022-08-17T16:30:42.371Z,79.30
2022-08-17T16:33:07.761Z,79.50
2022-08-17T16:35:31.483Z,79.30
2022-08-17T16:37:55.887Z,79.50
2022-08-17T16:40:21.824Z,78.80
2022-08-17T16:42:49.041Z,78.50
2022-08-17T16:45:18.469Z,78.90
2022-08-17T16:47:42.925Z,79.20
2022-08-17T16:50:10.394Z,79.10
2022-08-17T16:52:34.618Z,78.90
2022-08-17T16:54:58.575Z,79.40
2022-08-17T16:57:23.150Z,79.30
2022-08-17T17:00:11.839Z,79.30
2022-08-17T17:02:39.089Z,79.60
2022-08-17T17:05:18.106Z,79.00
2022-08-17T17:08:12.675Z,79.20
2022-08-17T17:10:41.408Z,79.80
2022-08-17T17:13:06.911Z,78.30
2022-08-17T17:15:51.813Z,78.80
2022-08-17T17:18:17.195Z,78.80
2022-08-17T17:20:49.294Z,78.70
2022-08-17T17:23:35.433Z,78.90
2022-08-17T17:26:24.630Z,78.70
2022-08-17T17:29:12.877Z,78.80
2022-08-17T17:31:49.231Z,78.50
2022-08-17T17:34:16.994Z,79.10
2022-08-17T17:36:47.112Z,79.70
2022-08-17T17:39:19.092Z,79.60
2022-08-17T17:41:49.714Z,80.30
2022-08-17T17:44:19.881Z,79.30
2022-08-17T17:46:47.035Z,79.40
2022-08-17T17:49:14.121Z,79.00
2022-08-17T17:52:09.076Z,79.90
2022-08-17T17:54:52.311Z,79.90
2022-08-17T17:57:25.731Z,80.10
2022-08-17T18:00:00.828Z,79.90
2022-08-17T18:02:51.774Z,80.10
2022-08-17T18:05:34.228Z,79.70
2022-08-17T18:08:10.956Z,79.60
2022-08-17T18:10:44.898Z,80.00
2022-08-17T18:13:21.219Z,80.10
2022-08-17T18:15:53.216Z,80.70
2022-08-17T18:18:38.727Z,81.50
2022-08-17T18:21:06.690Z,80.80
2022-08-17T18:23:31.796Z,80.60
2022-08-17T18:25:56.521Z,81.20
2022-08-17T18:28:28.611Z,80.90
2022-08-17T18:31:13.004Z,80.30
2022-08-17T18:33:38.179Z,80.40
2022-08-17T18:36:02.430Z,80.10
2022-08-17T18:38:33.991Z,79.90
2022-08-17T18:41:06.867Z,79.40
2022-08-17T18:43:44.045Z,79.40
2022-08-17T18:46:38.371Z,80.00
2022-08-17T18:49:04.917Z,79.30
2022-08-17T18:51:40.752Z,78.70
2022-08-17T18:54:19.824Z,79.20
2022-08-17T18:56:45.694Z,78.90
2022-08-17T18:59:27.976Z,78.50
2022-08-17T19:02:38.799Z,79.50
2022-08-17T19:05:13.346Z,79.60
2022-08-17T19:07:40.946Z,79.40
2022-08-17T19:10:17.946Z,79.40
2022-08-17T19:12:50.582Z,79.30
2022-08-17T19:15:18.547Z,79.90
2022-08-17T19:17:49.451Z,80.10
2022-08-17T19:20:21.009Z,80.30
2022-08-17T19:22:55.434Z,80.20
2022-08-17T19:25:27.188Z,80.90
2022-08-17T19:27:57.752Z,80.60
2022-08-17T19:30:22.171Z,81.70
2022-08-17T19:32:45.742Z,81.70
2022-08-17T19:35:17.155Z,81.50
2022-08-17T19:37:49.488Z,81.20
2022-08-17T19:40:51.581Z,81.80
2022-08-17T19:43:24.378Z,81.80
2022-08-17T19:46:01.383Z,81.70
2022-08-17T19:48:40.872Z,82.20
2022-08-17T19:51:09.909Z,81.80
2022-08-17T19:54:04.442Z,82.80
2022-08-17T19:56:34.606Z,82.60
2022-08-17T19:59:07.341Z,83.10
2022-08-17T20:01:42.541Z,83.70
2022-08-17T20:04:13.835Z,84.00
2022-08-17T20:06:42.964Z,84.30
2022-08-17T20:09:18.329Z,84.50
2022-08-17T20:11:49.401Z,84.00
2022-08-17T20:14:16.506Z,83.80
2022-08-17T20:16:40.309Z,83.50
2022-08-17T20:19:08.916Z,83.80
2022-08-17T20:21:43.948Z,84.20
2022-08-17T20:24:19.947Z,84.10
2022-08-17T20:26:57.928Z,84.60
2022-08-17T20:29:40.329Z,84.50
2022-08-17T20:32:27.659Z,84.50
2022-08-17T20:35:20.036Z,84.40
2022-08-17T20:37:53.213Z,86.90
2022-08-17T20:40:26.215Z,87.10
2022-08-17T20:42:51.936Z,87.80
2022-08-17T20:46:05.732Z,88.40
2022-08-17T20:48:38.721Z,88.10
2022-08-17T20:51:26.020Z,88.70
2022-08-17T20:54:45.430Z,89.10
2022-08-17T20:57:13.971Z,88.00
2022-08-17T21:00:15.196Z,88.20
2022-08-17T21:02:39.102Z,88.00
2022-08-17T21:05:32.348Z,88.10
2022-08-17T21:08:02.177Z,88.40
2022-08-17T21:10:39.063Z,88.50
2022-08-17T21:13:23.899Z,88.50
2022-08-17T21:15:58.988Z,88.30
2022-08-17T21:18:38.663Z,88.50
2022-08-17T21:21:18.268Z,88.40
2022-08-17T21:24:04.645Z,89.20
2022-08-17T21:26:50.618Z,89.00
2022-08-17T21:29:31.447Z,89.50
2022-08-17T21:32:24.728Z,89.50
2022-08-17T21:35:28.763Z,89.30
2022-08-17T21:37:58.447Z,89.80
2022-08-17T21:40:27.430Z,90.20
2022-08-17T21:42:55.598Z,90.60
2022-08-17T21:45:28.421Z,90.00
2022-08-17T21:48:13.368Z,89.90
2022-08-17T21:50:38.146Z,89.80
2022-08-17T21:53:03.358Z,90.50
2022-08-17T21:55:30.048Z,90.20
2022-08-17T21:58:13.927Z,90.50
2022-08-17T22:00:38.520Z,90.60
2022-08-17T22:03:06.739Z,91.20
2022-08-17T22:05:34.621Z,92.00
2022-08-17T22:08:06.413Z,91.00
2022-08-17T22:10:33.486Z,90.90
2022-08-17T22:13:16.518Z,91.20
2022-08-17T22:15:46.227Z,91.20
2022-08-17T22:18:19.628Z,91.30
2022-08-17T22:20:43.399Z,91.70
2022-08-17T22:23:32.022Z,91.40
2022-08-17T22:26:02.741Z,91.50
2022-08-17T22:28:41.008Z,91.90
2022-08-17T22:31:06.938Z,92.30
2022-08-17T22:33:39.695Z,92.60
2022-08-17T22:36:29.102Z,92.40
2022-08-17T22:38:55.273Z,92.30
2022-08-17T22:41:51.152Z,92.90
2022-08-17T22:44:25.436Z,91.60
2022-08-17T22:47:11.467Z,92.20
2022-08-17T22:49:53.291Z,91.80
2022-08-17T22:52:33.852Z,91.80
2022-08-17T22:55:26.291Z,91.80
2022-08-17T22:58:08.086Z,92.20
2022-08-17T23:00:38.359Z,93.30
2022-08-17T23:03:19.447Z,93.50
2022-08-17T23:05:48.203Z,93.90
2022-08-17T23:08:12.941Z,94.90
2022-08-17T23:10:37.428Z,95.10
2022-08-17T23:13:02.116Z,94.60
2022-08-17T23:15:26.289Z,93.70
2022-08-17T23:17:50.295Z,93.50
2022-08-17T23:20:18.632Z,93.40
2022-08-17T23:22:51.973Z,92.90
2022-08-17T23:25:30.338Z,93.40
2022-08-17T23:27:54.565Z,93.00
2022-08-17T23:30:18.950Z,92.30
2022-08-17T23:32:53.906Z,92.20
2022-08-17T23:35:17.983Z,92.70
2022-08-17T23:37:42.881Z,92.90
2022-08-17T23:40:08.587Z,92.90
2022-08-17T23:42:33.679Z,92.80
2022-08-17T23:44:57.392Z,93.00
2022-08-17T23:47:24.642Z,93.30
2022-08-17T23:49:48.579Z,92.50
2022-08-17T23:52:17.958Z,92.30
2022-08-17T23:54:47.851Z,93.20
2022-08-17T23:57:13.026Z,93.60
2022-08-17T23:59:37.365Z,92.90
